Time;durP1;ratioP1;P1;durP2;ratioP2;P2;SDS_P1;SDS_P2;PMS_P1;PMS_P2;Temp;Humidity;BMP_temperature;BMP_pressure;BME280_temperature;BME280_humidity;BME280_pressure;Samples;Min_cycle;Max_cycle;Signal;HPM_P1;HPM_P2
2023/07/28 00:03:09;;;;;;;2.30;1.50;;;;;;;22.20;42.07;99970.19;41318149;28;20065;-79
2023/07/28 00:23:10;;;;;;;2.10;1.60;;;;;;;22.19;42.22;99964.09;41309995;28;20042;-80
2023/07/28 00:43:10;;;;;;;2.58;1.70;;;;;;;22.19;42.60;99955.31;41303522;28;20046;-83
2023/07/28 01:03:11;;;;;;;2.85;1.30;;;;;;;22.20;42.71;99949.94;41292323;28;20046;-81
2023/07/28 01:23:23;;;;;;;6.45;2.00;;;;;;;22.12;42.85;99943.63;41317483;28;20046;-79
2023/07/28 01:43:23;;;;;;;2.55;1.60;;;;;;;21.98;43.00;99939.59;41314686;28;20137;-83
2023/07/28 02:03:24;;;;;;;2.30;1.88;;;;;;;21.90;43.30;99937.66;41323935;28;20050;-79
2023/07/28 02:23:24;;;;;;;5.00;1.73;;;;;;;21.78;43.86;99930.81;41324430;28;20427;-82
2023/07/28 02:43:25;;;;;;;3.17;2.00;;;;;;;21.67;44.32;99918.56;41330509;28;20046;-82
2023/07/28 03:03:25;;;;;;;3.17;1.60;;;;;;;21.59;44.74;99924.50;41313585;28;20038;-81
2023/07/28 03:23:26;;;;;;;2.30;1.60;;;;;;;21.50;44.89;99906.84;41271611;28;20101;-81
2023/07/28 03:43:28;;;;;;;2.90;1.98;;;;;;;21.36;45.52;99911.50;41316428;28;20038;-84
2023/07/28 04:03:28;;;;;;;2.47;1.88;;;;;;;21.36;46.04;99922.03;41314287;28;20049;-83
2023/07/28 04:23:29;;;;;;;3.42;1.90;;;;;;;21.32;46.29;99938.22;41315582;28;20053;-78
2023/07/28 04:43:29;;;;;;;4.72;2.00;;;;;;;21.71;46.19;99931.31;41232974;28;20046;-77
2023/07/28 05:03:30;;;;;;;3.30;1.98;;;;;;;22.14;46.58;99902.16;41284001;28;20397;-73
2023/07/28 05:23:30;;;;;;;7.60;2.10;;;;;;;22.38;45.85;99905.25;41319516;28;20046;-72
2023/07/28 05:43:31;;;;;;;7.47;2.75;;;;;;;22.56;45.79;99909.84;41281735;28;20042;-78
2023/07/28 06:03:32;;;;;;;10.27;2.75;;;;;;;22.67;45.07;99935.28;41326523;28;20408;-83
2023/07/28 06:23:32;;;;;;;6.40;2.35;;;;;;;22.79;44.51;99951.78;41348443;28;20038;-81
2023/07/28 06:43:33;;;;;;;4.88;2.03;;;;;;;22.90;44.12;99951.66;41300264;28;20078;-79
2023/07/28 07:03:33;;;;;;;4.85;1.95;;;;;;;22.98;44.07;99917.44;41352266;28;20100;-84
2023/07/28 07:23:34;;;;;;;6.20;2.05;;;;;;;23.07;43.46;99885.88;41344640;28;20444;-79
2023/07/28 07:43:34;;;;;;;4.97;2.00;;;;;;;23.15;43.42;99886.00;41340237;28;20041;-83
2023/07/28 08:03:37;;;;;;;2.53;1.58;;;;;;;23.24;43.30;99876.38;41308659;28;20517;-83
2023/07/28 08:23:38;;;;;;;3.55;1.85;;;;;;;23.30;43.15;99883.72;41297157;28;20046;-82
2023/07/28 08:43:38;;;;;;;2.75;1.50;;;;;;;23.39;43.63;99872.31;41361347;28;20041;-75
2023/07/28 09:03:41;;;;;;;4.78;1.42;;;;;;;23.47;43.78;99848.63;41371952;28;20124;-78
2023/07/28 09:23:44;;;;;;;3.42;1.48;;;;;;;23.58;44.12;99836.19;41380597;28;20069;-77
2023/07/28 09:43:44;;;;;;;5.55;2.00;;;;;;;23.66;45.11;99833.63;41362763;28;20070;-77
2023/07/28 10:03:46;;;;;;;4.20;1.50;;;;;;;23.76;44.26;99812.44;41345529;28;20081;-75
2023/07/28 10:23:55;;;;;;;2.38;1.38;;;;;;;23.86;44.54;99812.34;41331944;28;20052;-75
2023/07/28 10:43:55;;;;;;;2.72;1.75;;;;;;;24.00;44.57;99803.94;41346568;28;20080;-74
2023/07/28 11:03:55;;;;;;;4.95;1.80;;;;;;;24.38;44.29;99795.81;41328370;28;20165;-75
2023/07/28 11:23:56;;;;;;;3.38;1.50;;;;;;;24.59;43.88;99788.31;41322131;28;20042;-73
2023/07/28 11:43:56;;;;;;;4.90;1.40;;;;;;;24.78;42.98;99779.38;41287826;28;20092;-74
2023/07/28 12:04:00;;;;;;;2.42;1.23;;;;;;;25.06;42.35;99767.72;41295111;28;20048;-77
2023/07/28 12:24:00;;;;;;;2.42;1.60;;;;;;;25.25;40.86;99748.09;41303881;28;20073;-75
2023/07/28 12:44:02;;;;;;;2.35;1.50;;;;;;;25.42;41.50;99738.41;41283565;28;20046;-78
2023/07/28 13:04:02;;;;;;;1.52;1.30;;;;;;;25.57;41.35;99741.25;41321898;28;20050;-79
2023/07/28 13:24:03;;;;;;;3.40;1.30;;;;;;;25.69;41.55;99721.38;41315092;28;20050;-73
2023/07/28 13:44:03;;;;;;;2.72;1.73;;;;;;;25.73;40.33;99730.66;41273815;28;20062;-74
2023/07/28 14:04:04;;;;;;;3.00;1.30;;;;;;;25.79;40.48;99728.34;41284931;28;20050;-81
2023/07/28 14:24:08;;;;;;;2.05;1.48;;;;;;;25.78;41.46;99710.75;41252938;28;20057;-78
2023/07/28 14:44:09;;;;;;;6.15;1.65;;;;;;;25.98;40.58;99685.56;41207315;28;20053;-75
2023/07/28 15:04:11;;;;;;;2.00;1.50;;;;;;;26.28;41.07;99662.00;41193733;28;22226;-75
2023/07/28 15:24:12;;;;;;;5.35;1.58;;;;;;;26.41;41.21;99639.41;41228763;28;20050;-81
2023/07/28 15:44:13;;;;;;;1.60;1.50;;;;;;;26.46;39.99;99664.41;41226535;28;20061;-80
2023/07/28 16:04:13;;;;;;;2.42;1.60;;;;;;;26.43;39.69;99679.88;41329964;28;20040;-79
2023/07/28 16:24:14;;;;;;;28.70;3.30;;;;;;;26.31;41.19;99820.06;41298475;28;20137;-81
2023/07/28 16:44:14;;;;;;;6.22;1.80;;;;;;;25.92;47.10;99808.25;41282352;28;20045;-75
2023/07/28 17:04:15;;;;;;;14.65;2.40;;;;;;;25.80;51.81;99822.81;41324722;28;20502;-73
2023/07/28 17:24:16;;;;;;;11.25;5.22;;;;;;;25.82;52.22;99829.63;41319494;28;20038;-75
2023/07/28 17:44:16;;;;;;;5.47;2.17;;;;;;;25.75;54.42;99811.88;41335498;28;20604;-79
2023/07/28 18:04:18;;;;;;;6.63;3.03;;;;;;;25.71;54.00;99812.19;41322764;28;20054;-81
2023/07/28 18:24:20;;;;;;;4.93;2.80;;;;;;;25.64;54.23;99799.75;41329003;28;20034;-79
2023/07/28 18:44:20;;;;;;;3.60;2.80;;;;;;;25.59;54.71;99805.53;41350991;28;20042;-84
2023/07/28 19:04:21;;;;;;;2.90;2.38;;;;;;;25.43;55.89;99814.28;41348245;28;20046;-81
2023/07/28 19:24:22;;;;;;;5.10;2.10;;;;;;;25.39;56.29;99834.16;41313945;28;20050;-84
2023/07/28 19:44:23;;;;;;;4.80;3.78;;;;;;;25.19;56.28;99838.84;41277983;28;20108;-79
2023/07/28 20:04:25;;;;;;;4.97;3.08;;;;;;;25.02;57.34;99830.78;41301606;28;20030;-78
2023/07/28 20:24:26;;;;;;;3.40;2.55;;;;;;;24.88;57.27;99849.94;41312948;28;20183;-78
2023/07/28 20:44:27;;;;;;;2.90;2.50;;;;;;;24.82;57.01;99863.81;41330762;28;20125;-76
2023/07/28 21:04:27;;;;;;;4.80;2.90;;;;;;;24.77;56.34;99846.56;41360843;28;20576;-76
2023/07/28 21:24:28;;;;;;;3.40;2.50;;;;;;;24.73;56.25;99868.19;41358774;28;20058;-80
2023/07/28 21:44:28;;;;;;;4.43;2.45;;;;;;;24.67;56.40;99888.19;41320870;28;20489;-80
2023/07/28 22:04:29;;;;;;;3.72;2.30;;;;;;;24.64;56.01;99892.94;41316800;28;20541;-80
2023/07/28 22:24:29;;;;;;;3.35;2.42;;;;;;;24.58;54.96;99868.75;41279645;28;20070;-78
2023/07/28 22:44:29;;;;;;;3.70;2.70;;;;;;;24.58;54.70;99884.63;41313524;28;20034;-73
2023/07/28 23:04:30;;;;;;;2.67;2.42;;;;;;;24.55;54.83;99899.97;41319061;28;20092;-79
2023/07/28 23:24:30;;;;;;;3.58;2.60;;;;;;;24.50;55.78;99891.66;41318984;28;20039;-80
2023/07/28 23:44:31;;;;;;;5.10;2.92;;;;;;;24.46;56.16;99881.38;41307019;28;20408;-79
